createdAt,value
2022-11-09T00:00:36.359Z,12.10
2022-11-09T00:03:03.844Z,12.23
2022-11-09T00:05:31.243Z,12.41
2022-11-09T00:07:58.444Z,12.09
2022-11-09T00:10:25.923Z,12.14
2022-11-09T00:12:53.103Z,11.98
2022-11-09T00:15:20.315Z,12.20
2022-11-09T00:17:47.789Z,11.76
2022-11-09T00:20:15.027Z,11.96
2022-11-09T00:22:42.235Z,12.02
2022-11-09T00:25:09.825Z,12.01
2022-11-09T00:27:37.028Z,11.85
2022-11-09T00:30:04.476Z,11.61
2022-11-09T00:32:31.968Z,11.96
2022-11-09T00:34:59.176Z,11.79
2022-11-09T00:37:29.667Z,12.00
2022-11-09T00:39:57.154Z,12.23
2022-11-09T00:42:24.430Z,12.03
2022-11-09T00:44:51.671Z,11.94
2022-11-09T00:47:19.247Z,11.40
2022-11-09T00:49:47.184Z,11.88
2022-11-09T00:52:14.569Z,11.58
2022-11-09T00:54:42.120Z,11.59
2022-11-09T00:57:09.324Z,11.92
2022-11-09T00:59:36.643Z,11.77
2022-11-09T01:02:04.171Z,11.80
2022-11-09T01:04:31.478Z,12.36
2022-11-09T01:07:00.127Z,11.73
2022-11-09T01:09:27.672Z,11.81
2022-11-09T01:11:54.943Z,12.10
2022-11-09T01:14:22.478Z,12.15
2022-11-09T01:16:50.031Z,12.38
2022-11-09T01:19:17.352Z,11.86
2022-11-09T01:21:45.526Z,11.79
2022-11-09T01:24:13.043Z,12.03
2022-11-09T01:26:40.258Z,11.99
2022-11-09T01:29:07.475Z,12.08
2022-11-09T01:31:34.996Z,12.08
2022-11-09T01:34:02.428Z,12.08
2022-11-09T01:36:30.061Z,12.27
2022-11-09T01:39:00.390Z,12.43
2022-11-09T01:41:28.352Z,11.86
2022-11-09T01:44:06.835Z,12.01
2022-11-09T01:46:42.733Z,12.12
2022-11-09T01:49:14.978Z,12.07
2022-11-09T01:51:44.053Z,11.51
2022-11-09T01:54:13.373Z,11.79
2022-11-09T01:56:40.626Z,11.78
2022-11-09T01:59:11.310Z,11.17
2022-11-09T02:01:38.620Z,11.71
2022-11-09T02:04:21.028Z,11.98
2022-11-09T02:06:48.428Z,11.46
2022-11-09T02:09:18.907Z,11.37
2022-11-09T02:11:46.128Z,11.54
2022-11-09T02:14:13.515Z,11.75
2022-11-09T02:16:41.082Z,10.82
2022-11-09T02:19:08.341Z,11.10
2022-11-09T02:21:35.527Z,11.65
2022-11-09T02:24:03.034Z,11.75
2022-11-09T02:26:33.080Z,11.59
2022-11-09T02:29:01.026Z,11.57
2022-11-09T02:31:30.825Z,10.11
2022-11-09T02:34:03.343Z,11.37
2022-11-09T02:36:32.351Z,11.06
2022-11-09T02:39:00.619Z,11.57
2022-11-09T02:41:28.103Z,11.50
2022-11-09T02:43:57.118Z,11.58
2022-11-09T02:46:25.052Z,11.55
2022-11-09T02:48:52.708Z,11.56
2022-11-09T02:51:20.229Z,11.23
2022-11-09T02:53:48.655Z,10.84
2022-11-09T02:56:15.874Z,10.66
2022-11-09T02:58:43.374Z,10.79
2022-11-09T03:01:10.938Z,11.03
2022-11-09T03:03:38.195Z,10.88
2022-11-09T03:06:05.675Z,10.39
2022-11-09T03:08:33.178Z,10.26
2022-11-09T03:11:00.834Z,10.83
2022-11-09T03:13:28.807Z,10.38
2022-11-09T03:15:56.356Z,11.10
2022-11-09T03:18:23.551Z,11.37
2022-11-09T03:20:51.077Z,11.35
2022-11-09T03:23:18.624Z,11.20
2022-11-09T03:25:46.585Z,11.26
2022-11-09T03:28:14.776Z,11.17
2022-11-09T03:30:42.146Z,11.49
2022-11-09T03:33:10.358Z,11.42
2022-11-09T03:35:38.067Z,11.36
2022-11-09T03:38:05.503Z,11.66
2022-11-09T03:40:32.710Z,11.04
2022-11-09T03:43:00.193Z,10.99
2022-11-09T03:45:30.093Z,11.00
2022-11-09T03:48:00.140Z,11.33
2022-11-09T03:50:28.424Z,11.41
2022-11-09T03:52:55.869Z,11.31
2022-11-09T03:55:23.051Z,11.17
2022-11-09T03:57:50.570Z,11.17
2022-11-09T04:00:18.835Z,11.02
2022-11-09T04:02:46.500Z,10.21
2022-11-09T04:05:14.032Z,10.89
2022-11-09T04:07:41.225Z,10.40
2022-11-09T04:10:08.698Z,10.52
2022-11-09T04:12:35.924Z,11.01
2022-11-09T04:15:03.165Z,11.31
2022-11-09T04:17:30.803Z,11.06
2022-11-09T04:19:58.014Z,10.29
2022-11-09T04:22:25.222Z,10.83
2022-11-09T04:24:52.679Z,10.93
2022-11-09T04:27:19.871Z,10.74
2022-11-09T04:29:47.056Z,10.85
2022-11-09T04:32:14.569Z,10.82
2022-11-09T04:34:41.747Z,10.95
2022-11-09T04:37:09.330Z,10.99
2022-11-09T04:39:36.816Z,10.61
2022-11-09T04:42:04.028Z,11.10
2022-11-09T04:44:31.290Z,11.33
2022-11-09T04:46:58.761Z,11.30
2022-11-09T04:49:25.987Z,11.49
2022-11-09T04:51:53.187Z,11.64
2022-11-09T04:54:20.707Z,11.61
2022-11-09T04:56:47.922Z,11.56
2022-11-09T04:59:15.166Z,11.27
2022-11-09T05:01:42.715Z,11.06
2022-11-09T05:04:09.933Z,10.84
2022-11-09T05:06:37.205Z,11.16
2022-11-09T05:09:05.962Z,10.66
2022-11-09T05:11:33.752Z,10.76
2022-11-09T05:14:01.285Z,10.61
2022-11-09T05:16:29.058Z,10.55
2022-11-09T05:18:56.234Z,10.50
2022-11-09T05:21:23.415Z,10.62
2022-11-09T05:23:59.793Z,9.97
2022-11-09T05:26:33.638Z,10.34
2022-11-09T05:29:02.649Z,10.09
2022-11-09T05:31:30.343Z,10.30
2022-11-09T05:33:57.722Z,10.74
2022-11-09T05:36:25.483Z,10.55
2022-11-09T05:38:52.704Z,10.63
2022-11-09T05:41:20.221Z,10.53
2022-11-09T05:43:47.698Z,10.37
2022-11-09T05:46:15.135Z,10.65
2022-11-09T05:48:42.824Z,10.30
2022-11-09T05:51:11.378Z,10.72
2022-11-09T05:53:42.375Z,10.81
2022-11-09T05:56:14.374Z,10.69
2022-11-09T05:58:42.129Z,10.78
2022-11-09T06:01:10.520Z,10.52
2022-11-09T06:03:38.151Z,10.61
2022-11-09T06:06:08.641Z,10.20
2022-11-09T06:08:36.401Z,10.72
2022-11-09T06:11:08.042Z,10.34
2022-11-09T06:13:35.553Z,10.44
2022-11-09T06:16:03.795Z,10.54
2022-11-09T06:18:31.547Z,10.80
2022-11-09T06:20:59.886Z,10.64
2022-11-09T06:23:27.213Z,10.56
2022-11-09T06:25:58.540Z,10.65
2022-11-09T06:28:25.751Z,10.74
2022-11-09T06:30:53.144Z,10.52
2022-11-09T06:33:20.886Z,10.77
2022-11-09T06:35:52.146Z,10.40
2022-11-09T06:38:23.874Z,10.76
2022-11-09T06:40:51.393Z,10.02
2022-11-09T06:43:18.943Z,10.24
2022-11-09T06:45:46.631Z,9.82
2022-11-09T06:48:14.016Z,9.91
2022-11-09T06:50:41.279Z,10.43
2022-11-09T06:53:09.951Z,10.46
2022-11-09T06:55:37.291Z,10.18
2022-11-09T06:58:08.042Z,10.19
2022-11-09T07:00:35.738Z,10.38
2022-11-09T07:03:03.040Z,9.46
2022-11-09T07:05:30.351Z,10.23
2022-11-09T07:07:57.905Z,10.20
2022-11-09T07:10:25.216Z,10.26
2022-11-09T07:12:52.396Z,10.17
2022-11-09T07:15:19.855Z,10.21
2022-11-09T07:17:47.091Z,9.83
2022-11-09T07:20:14.911Z,10.13
2022-11-09T07:22:42.841Z,9.60
2022-11-09T07:25:11.008Z,10.09
2022-11-09T07:27:38.222Z,9.57
2022-11-09T07:30:05.920Z,9.91
2022-11-09T07:33:08.624Z,9.75
2022-11-09T07:35:21.711Z,9.47
2022-11-09T07:37:48.885Z,9.59
2022-11-09T07:40:16.088Z,9.71
2022-11-09T07:42:43.555Z,9.63
2022-11-09T07:45:10.900Z,9.92
2022-11-09T07:47:38.482Z,10.29
2022-11-09T07:50:06.187Z,10.21
2022-11-09T07:52:33.362Z,9.86
2022-11-09T07:55:00.616Z,9.33
2022-11-09T07:57:28.079Z,10.06
2022-11-09T07:59:55.269Z,9.85
2022-11-09T08:02:22.581Z,10.07
2022-11-09T08:04:50.049Z,10.57
2022-11-09T08:07:17.271Z,10.41
2022-11-09T08:09:44.491Z,9.93
2022-11-09T08:12:11.981Z,10.11
2022-11-09T08:14:39.214Z,10.23
2022-11-09T08:17:06.436Z,10.07
2022-11-09T08:19:34.248Z,10.44
2022-11-09T08:22:01.463Z,10.54
2022-11-09T08:24:28.649Z,10.54
2022-11-09T08:26:56.108Z,10.26
2022-11-09T08:29:23.265Z,10.13
2022-11-09T08:31:51.127Z,9.76
2022-11-09T08:34:18.771Z,10.31
2022-11-09T08:36:45.934Z,9.80
2022-11-09T08:39:13.135Z,10.12
2022-11-09T08:41:40.588Z,10.23
2022-11-09T08:44:07.818Z,10.51
2022-11-09T08:46:40.828Z,10.82
2022-11-09T08:49:08.855Z,10.45
2022-11-09T08:51:36.053Z,10.28
2022-11-09T08:54:03.299Z,10.46
2022-11-09T08:56:30.909Z,10.82
2022-11-09T08:58:58.079Z,10.62
2022-11-09T09:01:25.495Z,10.33
2022-11-09T09:03:52.988Z,10.23
2022-11-09T09:06:20.195Z,9.99
2022-11-09T09:08:47.382Z,10.36
2022-11-09T09:11:16.521Z,10.77
2022-11-09T09:13:43.948Z,10.41
2022-11-09T09:16:12.166Z,10.66
2022-11-09T09:18:39.709Z,10.26
2022-11-09T09:21:07.739Z,10.79
2022-11-09T09:23:34.903Z,10.71
2022-11-09T09:26:02.352Z,10.87
2022-11-09T09:28:29.608Z,10.71
2022-11-09T09:31:00.101Z,10.60
2022-11-09T09:33:27.628Z,11.01
2022-11-09T09:35:55.502Z,10.77
2022-11-09T09:38:22.995Z,11.07
2022-11-09T09:41:00.350Z,11.35
2022-11-09T09:43:47.832Z,10.27
2022-11-09T09:46:33.939Z,10.63
2022-11-09T09:49:06.256Z,10.92
2022-11-09T09:51:45.508Z,10.80
2022-11-09T09:54:15.521Z,10.88
2022-11-09T09:56:43.852Z,11.13
2022-11-09T09:59:20.356Z,10.96
2022-11-09T10:01:48.129Z,11.46
2022-11-09T10:04:22.497Z,10.36
2022-11-09T10:06:49.744Z,11.11
2022-11-09T10:09:23.182Z,10.75
2022-11-09T10:11:55.328Z,11.12
2022-11-09T10:14:25.914Z,11.33
2022-11-09T10:17:11.761Z,11.49
2022-11-09T10:19:51.581Z,10.46
2022-11-09T10:22:22.397Z,11.13
2022-11-09T10:25:18.568Z,11.17
2022-11-09T10:27:48.048Z,11.29
2022-11-09T10:30:19.429Z,11.24
2022-11-09T10:32:55.050Z,11.06
2022-11-09T10:35:24.905Z,10.65
2022-11-09T10:37:52.637Z,11.18
2022-11-09T10:40:22.360Z,11.22
2022-11-09T10:43:12.106Z,10.70
2022-11-09T10:46:04.880Z,11.25
2022-11-09T10:48:50.578Z,10.76
2022-11-09T10:51:40.447Z,10.80
2022-11-09T10:54:28.112Z,11.64
2022-11-09T10:57:17.365Z,10.69
2022-11-09T11:00:03.348Z,10.78
2022-11-09T11:02:50.392Z,11.67
2022-11-09T11:05:36.216Z,10.51
2022-11-09T11:08:23.167Z,11.39
2022-11-09T11:11:33.207Z,11.02
2022-11-09T11:14:23.411Z,11.70
2022-11-09T11:17:28.414Z,11.59
2022-11-09T11:20:26.370Z,11.54
2022-11-09T11:23:12.887Z,10.99
2022-11-09T11:26:01.409Z,12.14
2022-11-09T11:28:51.857Z,12.12
2022-11-09T11:31:37.470Z,11.48
2022-11-09T11:34:53.531Z,12.05
2022-11-09T11:37:40.251Z,12.26
2022-11-09T11:40:28.346Z,11.27
2022-11-09T11:43:40.209Z,11.65
2022-11-09T11:46:31.840Z,12.46
2022-11-09T11:49:50.045Z,12.22
2022-11-09T11:52:47.878Z,11.63
2022-11-09T11:55:46.384Z,12.00
2022-11-09T11:58:35.738Z,11.77
2022-11-09T12:01:21.511Z,12.14
2022-11-09T12:04:30.954Z,11.98
2022-11-09T12:07:24.650Z,11.51
2022-11-09T12:10:17.065Z,11.93
2022-11-09T12:13:22.491Z,12.01
2022-11-09T12:16:14.014Z,12.40
2022-11-09T12:18:59.739Z,11.83
2022-11-09T12:21:55.115Z,11.55
2022-11-09T12:24:55.965Z,11.27
2022-11-09T12:27:59.874Z,11.85
2022-11-09T12:31:04.003Z,11.52
2022-11-09T12:34:02.967Z,11.52
2022-11-09T12:36:56.112Z,11.80
2022-11-09T12:39:41.693Z,11.69
2022-11-09T12:42:35.041Z,12.48
2022-11-09T12:45:34.167Z,11.94
2022-11-09T12:48:22.951Z,12.41
2022-11-09T12:51:08.733Z,12.84
2022-11-09T12:53:54.331Z,12.47
2022-11-09T12:56:59.173Z,12.20
2022-11-09T12:59:50.212Z,12.20
2022-11-09T13:02:37.299Z,11.04
2022-11-09T13:05:37.611Z,11.79
2022-11-09T13:08:29.218Z,11.35
2022-11-09T13:11:17.806Z,12.26
2022-11-09T13:14:21.932Z,11.87
2022-11-09T13:17:25.788Z,11.84
2022-11-09T13:20:56.366Z,12.26
2022-11-09T13:26:49.004Z,12.29
2022-11-09T13:29:40.737Z,11.57
2022-11-09T13:32:29.711Z,11.63
2022-11-09T13:35:34.416Z,11.87
2022-11-09T13:38:23.358Z,12.37
2022-11-09T13:41:28.124Z,11.68
2022-11-09T13:44:17.907Z,12.18
2022-11-09T13:47:03.321Z,11.97
2022-11-09T13:49:49.821Z,11.71
2022-11-09T13:52:48.682Z,12.56
2022-11-09T13:55:38.694Z,12.15
2022-11-09T13:58:24.290Z,11.75
2022-11-09T14:01:29.894Z,12.22
2022-11-09T14:04:26.864Z,12.66
2022-11-09T14:07:29.207Z,13.09
2022-11-09T14:10:33.976Z,12.74
2022-11-09T14:13:24.527Z,13.03
2022-11-09T14:16:17.347Z,13.26
2022-11-09T14:19:09.137Z,13.00
2022-11-09T14:21:54.749Z,12.71
2022-11-09T14:24:40.334Z,13.28
2022-11-09T14:27:26.021Z,13.42
2022-11-09T14:30:21.561Z,12.89
2022-11-09T14:33:20.456Z,13.04
2022-11-09T14:36:06.492Z,12.73
2022-11-09T14:38:52.020Z,12.46
2022-11-09T14:41:37.871Z,13.26
2022-11-09T14:44:32.284Z,13.68
2022-11-09T14:47:33.486Z,13.32
2022-11-09T14:50:37.570Z,13.05
2022-11-09T14:53:26.320Z,13.52
2022-11-09T14:56:12.914Z,13.45
2022-11-09T14:58:58.451Z,13.48
2022-11-09T15:01:56.894Z,13.44
2022-11-09T15:04:54.738Z,13.31
2022-11-09T15:07:40.306Z,13.18
2022-11-09T15:10:29.630Z,13.16
2022-11-09T15:13:15.060Z,12.64
2022-11-09T15:16:01.023Z,12.96
2022-11-09T15:18:46.549Z,13.26
2022-11-09T15:21:34.289Z,13.04
2022-11-09T15:24:20.500Z,13.19
2022-11-09T15:27:26.232Z,12.87
2022-11-09T15:30:30.740Z,13.28
2022-11-09T15:33:19.371Z,12.91
2022-11-09T15:36:06.768Z,13.26
2022-11-09T15:38:57.235Z,13.50
2022-11-09T15:41:42.844Z,13.26
2022-11-09T15:44:28.345Z,13.90
2022-11-09T15:47:21.624Z,13.71
2022-11-09T15:50:11.258Z,13.64
2022-11-09T15:52:56.902Z,13.05
2022-11-09T15:55:43.043Z,13.05
2022-11-09T15:58:28.679Z,13.09
2022-11-09T16:01:14.431Z,12.89
2022-11-09T16:04:00.297Z,12.83
2022-11-09T16:06:47.001Z,13.49
2022-11-09T16:09:33.263Z,13.30
2022-11-09T16:12:19.276Z,13.64
2022-11-09T16:15:05.211Z,13.72
2022-11-09T16:17:51.264Z,13.49
2022-11-09T16:20:36.924Z,13.56
2022-11-09T16:23:22.652Z,14.17
2022-11-09T16:26:09.359Z,13.99
2022-11-09T16:28:55.151Z,14.06
2022-11-09T16:31:51.434Z,13.03
2022-11-09T16:34:38.276Z,12.90
2022-11-09T16:37:23.979Z,13.49
2022-11-09T16:40:11.270Z,13.82
2022-11-09T16:42:56.914Z,13.96
2022-11-09T16:45:46.641Z,13.34
2022-11-09T16:48:33.016Z,13.11
2022-11-09T16:51:19.279Z,13.81
2022-11-09T16:54:05.200Z,13.57
2022-11-09T16:56:52.262Z,13.73
2022-11-09T16:59:38.506Z,13.31
2022-11-09T17:02:24.792Z,13.81
2022-11-09T17:05:10.830Z,13.62
2022-11-09T17:07:57.171Z,13.31
2022-11-09T17:10:43.772Z,12.72
2022-11-09T17:13:29.728Z,13.24
2022-11-09T17:16:20.242Z,12.90
2022-11-09T17:19:06.361Z,13.87
2022-11-09T17:21:52.325Z,13.52
2022-11-09T17:24:38.283Z,14.57
2022-11-09T17:27:24.238Z,14.56
2022-11-09T17:30:11.771Z,14.41
2022-11-09T17:32:57.542Z,14.47
2022-11-09T17:35:43.071Z,14.47
2022-11-09T17:38:28.898Z,14.28
2022-11-09T17:41:18.781Z,14.36
2022-11-09T17:44:04.581Z,14.07
2022-11-09T17:46:50.651Z,14.46
2022-11-09T17:49:36.534Z,14.53
2022-11-09T17:52:22.071Z,14.56
2022-11-09T17:55:07.949Z,14.12
2022-11-09T17:57:53.983Z,13.78
2022-11-09T18:00:39.788Z,14.16
2022-11-09T18:03:25.899Z,14.12
2022-11-09T18:06:13.255Z,13.87
2022-11-09T18:09:34.457Z,13.56
2022-11-09T18:12:05.434Z,13.52
2022-11-09T18:14:51.575Z,13.54
2022-11-09T18:17:37.307Z,13.19
2022-11-09T18:20:23.518Z,12.92
2022-11-09T18:23:09.813Z,13.74
2022-11-09T18:25:58.668Z,14.12
2022-11-09T18:28:44.934Z,13.49
2022-11-09T18:31:30.734Z,14.38
2022-11-09T18:34:16.404Z,14.16
2022-11-09T18:37:02.017Z,13.75
2022-11-09T18:39:48.008Z,13.46
2022-11-09T18:42:33.260Z,13.56
2022-11-09T18:45:19.588Z,13.63
2022-11-09T18:48:05.659Z,14.06
2022-11-09T18:50:52.366Z,13.95
2022-11-09T18:53:39.488Z,13.95
2022-11-09T18:56:25.163Z,14.28
2022-11-09T18:59:12.381Z,13.74
2022-11-09T19:01:57.952Z,13.98
2022-11-09T19:04:43.838Z,13.96
2022-11-09T19:07:29.793Z,14.19
2022-11-09T19:10:16.279Z,14.11
2022-11-09T19:13:02.273Z,14.39
2022-11-09T19:15:48.425Z,14.64
2022-11-09T19:18:34.140Z,14.43
2022-11-09T19:21:22.969Z,14.10
2022-11-09T19:24:11.942Z,13.37
2022-11-09T19:26:57.446Z,13.42
2022-11-09T19:29:43.109Z,14.54
2022-11-09T19:32:28.909Z,14.06
2022-11-09T19:35:14.833Z,14.61
2022-11-09T19:38:06.065Z,14.31
2022-11-09T19:40:54.493Z,14.17
2022-11-09T19:43:40.741Z,13.84
2022-11-09T19:46:27.000Z,14.29
2022-11-09T19:49:12.860Z,14.48
2022-11-09T19:51:58.575Z,14.94
2022-11-09T19:54:44.169Z,14.78
2022-11-09T19:57:30.920Z,15.11
2022-11-09T20:00:17.596Z,15.16
2022-11-09T20:03:03.678Z,15.29
2022-11-09T20:05:53.353Z,15.32
2022-11-09T20:08:39.222Z,15.46
2022-11-09T20:11:43.982Z,15.53
2022-11-09T20:14:29.626Z,15.29
2022-11-09T20:17:15.466Z,15.38
2022-11-09T20:20:01.070Z,15.38
2022-11-09T20:22:46.750Z,15.00
2022-11-09T20:25:32.606Z,15.08
2022-11-09T20:28:18.416Z,14.91
2022-11-09T20:31:08.594Z,15.16
2022-11-09T20:33:55.665Z,15.15
2022-11-09T20:36:41.684Z,15.28
2022-11-09T20:39:27.324Z,15.28
2022-11-09T20:42:13.407Z,15.15
2022-11-09T20:44:59.000Z,15.20
2022-11-09T20:48:05.135Z,15.27
2022-11-09T20:50:50.438Z,15.21
2022-11-09T20:53:36.199Z,14.95
2022-11-09T20:56:22.289Z,15.40
2022-11-09T20:59:07.731Z,15.26
2022-11-09T21:01:53.202Z,15.11
2022-11-09T21:04:39.255Z,14.84
2022-11-09T21:07:24.989Z,14.67
2022-11-09T21:10:10.788Z,15.24
2022-11-09T21:12:56.466Z,15.15
2022-11-09T21:15:41.953Z,15.19
2022-11-09T21:18:27.638Z,15.46
2022-11-09T21:21:15.403Z,15.24
2022-11-09T21:24:19.870Z,15.13
2022-11-09T21:27:24.304Z,15.03
2022-11-09T21:30:10.460Z,15.33
2022-11-09T21:32:55.806Z,15.42
2022-11-09T21:35:41.902Z,15.50
2022-11-09T21:38:27.589Z,15.19
2022-11-09T21:41:31.814Z,15.22
2022-11-09T21:44:17.648Z,15.37
2022-11-09T21:47:03.507Z,15.26
2022-11-09T21:49:49.291Z,15.37
2022-11-09T21:52:35.247Z,15.44
2022-11-09T21:55:20.938Z,14.87
2022-11-09T21:58:06.661Z,15.31
2022-11-09T22:00:52.705Z,14.75
2022-11-09T22:03:38.483Z,15.23
2022-11-09T22:06:25.628Z,14.61
2022-11-09T22:09:15.182Z,15.09
2022-11-09T22:12:19.350Z,14.88
2022-11-09T22:15:24.103Z,15.18
2022-11-09T22:18:29.821Z,15.34
2022-11-09T22:21:15.342Z,15.20
2022-11-09T22:24:01.213Z,15.36
2022-11-09T22:26:46.798Z,15.45
2022-11-09T22:29:32.755Z,15.26
2022-11-09T22:32:18.432Z,15.42
2022-11-09T22:35:04.510Z,15.53
2022-11-09T22:37:50.166Z,15.61
2022-11-09T22:40:35.956Z,15.44
2022-11-09T22:43:21.934Z,15.02
2022-11-09T22:46:12.303Z,15.37
2022-11-09T22:48:57.820Z,15.46
2022-11-09T22:51:43.840Z,15.38
2022-11-09T22:54:29.514Z,15.38
2022-11-09T22:57:15.221Z,15.44
2022-11-09T23:00:01.180Z,15.37
2022-11-09T23:02:46.957Z,15.55
2022-11-09T23:05:32.872Z,15.47
2022-11-09T23:08:18.785Z,15.58
2022-11-09T23:11:06.601Z,15.61
2022-11-09T23:13:53.095Z,15.59
2022-11-09T23:16:38.910Z,15.57
2022-11-09T23:19:24.654Z,15.58
2022-11-09T23:22:10.518Z,15.67
2022-11-09T23:25:14.963Z,15.61
2022-11-09T23:28:00.817Z,15.63
2022-11-09T23:30:46.581Z,15.66
2022-11-09T23:33:32.607Z,15.32
2022-11-09T23:36:18.713Z,15.43
2022-11-09T23:39:04.302Z,15.33
2022-11-09T23:41:50.055Z,15.52
2022-11-09T23:44:35.867Z,15.46
2022-11-09T23:47:21.367Z,15.46
2022-11-09T23:50:07.317Z,15.50
2022-11-09T23:52:53.449Z,15.53
2022-11-09T23:55:39.647Z,15.54
2022-11-09T23:58:25.695Z,15.56
